createdAt,value
2023-09-25T00:01:47.252Z,4.75
2023-09-25T00:04:27.936Z,3.88
2023-09-25T00:07:06.026Z,4.00
2023-09-25T00:09:39.594Z,4.22
2023-09-25T00:12:23.431Z,5.15
2023-09-25T00:15:05.858Z,5.43
2023-09-25T00:17:53.114Z,6.97
2023-09-25T00:20:33.256Z,9.90
2023-09-25T00:23:07.433Z,9.23
2023-09-25T00:26:06.105Z,9.75
2023-09-25T00:28:41.020Z,9.80
2023-09-25T00:31:31.474Z,10.23
2023-09-25T00:34:11.357Z,10.83
2023-09-25T00:36:42.211Z,12.85
2023-09-25T00:39:18.975Z,9.98
2023-09-25T00:41:59.792Z,13.85
2023-09-25T00:44:36.969Z,9.95
2023-09-25T00:47:27.915Z,8.13
2023-09-25T00:50:08.786Z,8.20
2023-09-25T00:52:49.254Z,8.07
2023-09-25T00:55:28.556Z,6.97
2023-09-25T00:58:05.673Z,8.27
2023-09-25T01:00:43.267Z,10.38
2023-09-25T01:03:27.770Z,12.00
2023-09-25T01:06:08.636Z,8.15
2023-09-25T01:08:45.788Z,6.63
2023-09-25T01:11:26.573Z,9.50
2023-09-25T01:14:00.221Z,7.47
2023-09-25T01:16:43.537Z,6.78
2023-09-25T01:19:22.937Z,9.00
2023-09-25T01:22:06.979Z,5.78
2023-09-25T01:24:45.040Z,5.65
2023-09-25T01:27:26.447Z,4.13
2023-09-25T01:30:13.296Z,4.88
2023-09-25T01:32:51.594Z,5.75
2023-09-25T01:35:26.517Z,5.15
2023-09-25T01:38:11.764Z,3.65
2023-09-25T01:40:46.721Z,3.30
2023-09-25T01:43:21.757Z,4.97
2023-09-25T01:46:02.528Z,4.82
2023-09-25T01:48:48.923Z,8.10
2023-09-25T01:51:25.097Z,4.28
2023-09-25T01:54:09.868Z,4.60
2023-09-25T01:56:50.238Z,5.20
2023-09-25T01:59:38.841Z,7.57
2023-09-25T02:02:19.400Z,12.82
2023-09-25T02:04:55.116Z,15.98
2023-09-25T02:07:31.900Z,13.13
2023-09-25T02:10:17.489Z,15.35
2023-09-25T02:12:56.386Z,12.75
2023-09-25T02:15:36.917Z,14.23
2023-09-25T02:18:15.562Z,13.07
2023-09-25T02:20:55.057Z,11.15
2023-09-25T02:23:36.495Z,12.07
2023-09-25T02:26:26.709Z,9.15
2023-09-25T02:29:03.437Z,8.13
2023-09-25T02:31:37.953Z,6.45
2023-09-25T02:34:27.979Z,5.72
2023-09-25T02:36:58.757Z,5.20
2023-09-25T02:39:34.222Z,4.55
2023-09-25T02:42:24.439Z,4.10
2023-09-25T02:45:02.048Z,5.60
2023-09-25T02:47:43.054Z,5.38
2023-09-25T02:50:30.162Z,8.10
2023-09-25T02:53:10.981Z,9.35
2023-09-25T02:55:42.162Z,10.15
2023-09-25T02:58:28.427Z,9.25
2023-09-25T03:01:06.441Z,9.15
2023-09-25T03:03:44.346Z,12.10
2023-09-25T03:06:26.013Z,7.72
2023-09-25T03:09:09.801Z,11.70
2023-09-25T03:11:45.295Z,8.70
2023-09-25T03:14:30.097Z,14.57
2023-09-25T03:17:16.162Z,4.90
2023-09-25T03:19:50.655Z,5.95
2023-09-25T03:22:32.148Z,5.35
2023-09-25T03:25:15.068Z,3.50
2023-09-25T03:27:54.798Z,3.10
2023-09-25T03:30:43.821Z,2.65
2023-09-25T03:33:24.147Z,2.78
2023-09-25T03:36:04.856Z,2.67
2023-09-25T03:38:39.825Z,3.30
2023-09-25T03:41:23.436Z,2.95
2023-09-25T03:44:06.605Z,3.75
2023-09-25T03:46:56.096Z,4.50
2023-09-25T03:49:35.100Z,4.18
2023-09-25T03:52:16.993Z,4.07
2023-09-25T03:54:53.679Z,3.53
2023-09-25T03:57:31.858Z,3.97
2023-09-25T04:00:15.242Z,3.92
2023-09-25T04:03:17.254Z,4.25
2023-09-25T04:05:55.614Z,3.88
2023-09-25T04:11:37.260Z,4.90
2023-09-25T04:14:13.760Z,10.75
2023-09-25T04:16:54.156Z,6.80
2023-09-25T04:19:40.540Z,7.88
2023-09-25T04:22:21.120Z,10.80
2023-09-25T04:24:55.318Z,7.53
2023-09-25T04:27:35.483Z,6.80
2023-09-25T04:30:21.080Z,6.30
2023-09-25T04:32:57.596Z,7.90
2023-09-25T04:35:48.248Z,4.43
2023-09-25T04:38:26.175Z,4.25
2023-09-25T04:41:10.033Z,3.22
2023-09-25T04:43:45.696Z,4.50
2023-09-25T04:46:29.533Z,3.53
2023-09-25T04:49:10.543Z,3.40
2023-09-25T04:51:54.015Z,4.18
2023-09-25T04:54:37.287Z,4.55
2023-09-25T04:57:13.495Z,5.30
2023-09-25T04:59:51.281Z,5.20
2023-09-25T05:02:23.190Z,8.00
2023-09-25T05:05:02.955Z,6.30
2023-09-25T05:07:45.094Z,4.63
2023-09-25T05:10:27.652Z,4.78
2023-09-25T05:13:05.895Z,3.90
2023-09-25T05:15:44.797Z,2.30
2023-09-25T05:18:28.700Z,1.35
2023-09-25T05:21:05.882Z,2.42
2023-09-25T05:23:46.121Z,1.60
2023-09-25T05:26:29.516Z,1.23
2023-09-25T05:29:09.556Z,2.28
2023-09-25T05:31:52.478Z,1.90
2023-09-25T05:34:37.406Z,4.05
2023-09-25T05:37:19.034Z,1.60
2023-09-25T05:40:02.946Z,1.15
2023-09-25T05:42:47.572Z,2.35
2023-09-25T05:45:23.304Z,1.35
2023-09-25T05:48:05.502Z,3.30
2023-09-25T05:50:44.998Z,2.28
2023-09-25T05:53:24.587Z,1.15
2023-09-25T05:56:02.103Z,2.00
2023-09-25T05:58:39.476Z,6.13
2023-09-25T06:01:17.506Z,1.10
2023-09-25T06:03:58.127Z,2.05
2023-09-25T06:06:43.046Z,5.20
2023-09-25T06:09:22.261Z,2.00
2023-09-25T06:12:02.649Z,1.58
2023-09-25T06:14:39.762Z,1.30
2023-09-25T06:17:20.233Z,2.45
2023-09-25T06:19:56.610Z,3.17
2023-09-25T06:22:34.195Z,3.28
2023-09-25T06:25:17.757Z,5.80
2023-09-25T06:27:53.788Z,4.82
2023-09-25T06:30:32.754Z,2.97
2023-09-25T06:33:14.155Z,4.57
2023-09-25T06:38:31.652Z,2.70
2023-09-25T06:41:10.238Z,2.42
2023-09-25T06:43:51.210Z,3.38
2023-09-25T06:49:09.765Z,4.32
2023-09-25T06:51:46.385Z,4.18
2023-09-25T06:54:21.638Z,3.45
2023-09-25T06:57:00.839Z,3.22
2023-09-25T06:59:40.884Z,5.30
2023-09-25T07:02:11.715Z,4.30
2023-09-25T07:04:52.517Z,4.93
2023-09-25T07:07:32.460Z,5.43
2023-09-25T07:10:07.486Z,10.32
2023-09-25T07:12:47.455Z,4.07
2023-09-25T07:18:21.723Z,4.85
2023-09-25T07:21:01.814Z,8.10
2023-09-25T07:23:43.207Z,8.48
2023-09-25T07:26:22.059Z,4.15
2023-09-25T07:29:00.391Z,5.53
2023-09-25T07:31:47.178Z,7.95
2023-09-25T07:34:18.075Z,4.20
2023-09-25T07:36:56.796Z,3.65
2023-09-25T07:39:40.157Z,5.03
2023-09-25T07:42:14.396Z,3.75
2023-09-25T07:44:54.966Z,5.95
2023-09-25T07:47:53.449Z,7.38
2023-09-25T07:50:26.968Z,6.75
2023-09-25T07:53:06.833Z,5.15
2023-09-25T07:55:44.817Z,5.82
2023-09-25T07:58:20.068Z,6.07
2023-09-25T08:01:05.576Z,12.20
2023-09-25T08:03:54.116Z,6.63
2023-09-25T08:09:15.186Z,5.00
2023-09-25T08:11:51.004Z,5.30
2023-09-25T08:14:32.803Z,5.00
2023-09-25T08:17:17.236Z,6.38
2023-09-25T08:20:18.614Z,8.20
2023-09-25T08:22:54.019Z,5.07
2023-09-25T08:25:33.001Z,4.72
2023-09-25T08:28:06.732Z,7.20
2023-09-25T08:30:47.337Z,10.32
2023-09-25T08:33:25.230Z,3.97
2023-09-25T08:36:17.704Z,5.95
2023-09-25T08:38:59.667Z,5.40
2023-09-25T08:41:39.976Z,4.47
2023-09-25T08:44:25.718Z,4.78
2023-09-25T08:47:07.807Z,6.68
2023-09-25T08:49:46.759Z,6.28
2023-09-25T08:52:37.486Z,9.52
2023-09-25T08:55:10.602Z,11.02
2023-09-25T08:57:47.726Z,5.65
2023-09-25T09:00:36.532Z,9.45
2023-09-25T09:03:09.812Z,6.22
2023-09-25T09:05:47.823Z,6.95
2023-09-25T09:08:31.332Z,8.55
2023-09-25T09:11:16.566Z,8.70
2023-09-25T09:13:58.474Z,9.95
2023-09-25T09:16:32.444Z,10.38
2023-09-25T09:19:14.703Z,12.70
2023-09-25T09:21:57.577Z,12.23
2023-09-25T09:24:42.043Z,9.65
2023-09-25T09:27:26.805Z,10.27
2023-09-25T09:30:04.098Z,10.32
2023-09-25T09:32:35.982Z,11.77
2023-09-25T09:35:18.864Z,7.28
2023-09-25T09:37:50.358Z,11.40
2023-09-25T09:40:46.680Z,10.80
2023-09-25T09:43:25.984Z,8.27
2023-09-25T09:46:13.650Z,7.93
2023-09-25T09:48:46.550Z,8.77
2023-09-25T09:51:24.111Z,9.95
2023-09-25T09:54:10.872Z,9.77
2023-09-25T09:57:04.999Z,9.43
2023-09-25T09:59:46.037Z,8.73
2023-09-25T10:02:22.651Z,9.18
2023-09-25T10:05:04.590Z,9.90
2023-09-25T10:08:00.454Z,8.48
2023-09-25T10:10:38.946Z,9.32
2023-09-25T10:13:39.216Z,11.93
2023-09-25T10:16:27.011Z,10.00
2023-09-25T10:19:04.965Z,10.00
2023-09-25T10:21:43.748Z,12.20
2023-09-25T10:24:29.193Z,12.32
2023-09-25T10:27:11.372Z,10.38
2023-09-25T10:30:11.345Z,8.02
2023-09-25T10:32:56.139Z,8.85
2023-09-25T10:35:54.926Z,10.30
2023-09-25T10:38:50.418Z,8.82
2023-09-25T10:41:21.370Z,9.45
2023-09-25T10:44:01.146Z,10.25
2023-09-25T10:46:40.453Z,26.00
2023-09-25T10:49:23.901Z,9.35
2023-09-25T10:52:07.412Z,7.68
2023-09-25T10:54:53.302Z,9.15
2023-09-25T10:57:33.954Z,13.95
2023-09-25T11:00:17.499Z,11.73
2023-09-25T11:03:05.283Z,10.20
2023-09-25T11:05:45.731Z,8.85
2023-09-25T11:08:20.445Z,9.68
2023-09-25T11:10:57.866Z,9.63
2023-09-25T11:16:21.328Z,10.32
2023-09-25T11:19:24.356Z,10.18
2023-09-25T11:22:06.367Z,8.25
2023-09-25T11:24:45.160Z,7.20
2023-09-25T11:27:24.317Z,10.68
2023-09-25T11:30:22.191Z,10.05
2023-09-25T11:32:56.511Z,11.30
2023-09-25T11:35:37.060Z,10.85
2023-09-25T11:38:25.104Z,12.30
2023-09-25T11:41:10.510Z,10.15
2023-09-25T11:43:52.053Z,12.15
2023-09-25T11:46:27.063Z,14.98
2023-09-25T11:49:12.262Z,13.65
2023-09-25T11:51:52.871Z,13.18
2023-09-25T11:54:35.071Z,12.13
2023-09-25T11:57:20.148Z,14.73
2023-09-25T12:00:00.416Z,11.63
2023-09-25T12:02:40.780Z,10.55
2023-09-25T12:05:29.029Z,10.48
2023-09-25T12:08:25.195Z,11.52
2023-09-25T12:10:59.263Z,11.32
2023-09-25T12:13:41.439Z,10.30
2023-09-25T12:16:25.360Z,10.90
2023-09-25T12:19:06.362Z,12.55
2023-09-25T12:24:23.620Z,19.75
2023-09-25T12:26:59.723Z,11.27
2023-09-25T12:29:40.807Z,13.15
2023-09-25T12:32:22.668Z,13.13
2023-09-25T12:35:04.727Z,9.57
2023-09-25T12:37:41.178Z,15.90
2023-09-25T12:40:25.064Z,13.00
2023-09-25T12:43:03.766Z,14.23
2023-09-25T12:45:39.124Z,13.20
2023-09-25T12:48:16.940Z,11.60
2023-09-25T12:51:02.668Z,8.88
2023-09-25T12:53:42.675Z,14.27
2023-09-25T12:56:24.103Z,9.85
2023-09-25T12:59:08.243Z,12.88
2023-09-25T13:01:42.937Z,10.15
2023-09-25T13:04:21.092Z,12.73
2023-09-25T13:06:58.500Z,12.38
2023-09-25T13:09:37.280Z,11.75
2023-09-25T13:12:20.685Z,10.85
2023-09-25T13:14:54.655Z,10.43
2023-09-25T13:17:32.589Z,9.82
2023-09-25T13:20:17.229Z,9.65
2023-09-25T13:22:56.747Z,13.65
2023-09-25T13:25:35.999Z,12.05
2023-09-25T13:28:21.261Z,12.35
2023-09-25T13:30:55.326Z,11.20
2023-09-25T13:33:38.920Z,9.38
2023-09-25T13:36:20.971Z,10.93
2023-09-25T13:39:03.091Z,10.60
2023-09-25T13:41:40.799Z,14.88
2023-09-25T13:44:34.925Z,10.32
2023-09-25T13:47:11.217Z,11.57
2023-09-25T13:49:50.398Z,13.38
2023-09-25T13:52:25.286Z,10.65
2023-09-25T13:55:11.897Z,12.07
2023-09-25T14:00:35.065Z,11.07
2023-09-25T14:03:10.889Z,9.45
2023-09-25T14:05:51.318Z,9.35
2023-09-25T14:08:27.019Z,13.38
2023-09-25T14:11:06.660Z,8.98
2023-09-25T14:13:50.030Z,10.00
2023-09-25T14:16:43.918Z,14.25
2023-09-25T14:19:25.612Z,14.30
2023-09-25T14:22:07.155Z,16.55
2023-09-25T14:24:58.906Z,13.43
2023-09-25T14:27:34.320Z,11.05
2023-09-25T14:30:05.517Z,15.57
2023-09-25T14:32:54.621Z,11.57
2023-09-25T14:35:27.259Z,17.88
2023-09-25T14:37:59.655Z,11.25
2023-09-25T14:40:41.478Z,10.18
2023-09-25T14:43:15.151Z,12.27
2023-09-25T14:45:56.200Z,14.73
2023-09-25T14:48:37.492Z,12.73
2023-09-25T14:51:17.379Z,12.15
2023-09-25T14:53:59.686Z,14.43
2023-09-25T14:56:34.875Z,16.95
2023-09-25T14:59:07.949Z,13.63
2023-09-25T15:01:40.089Z,11.57
2023-09-25T15:04:31.115Z,13.50
2023-09-25T15:07:19.863Z,13.30
2023-09-25T15:09:56.865Z,15.90
2023-09-25T15:12:31.534Z,13.73
2023-09-25T15:15:13.156Z,13.23
2023-09-25T15:17:59.178Z,15.93
2023-09-25T15:20:49.567Z,13.63
2023-09-25T15:23:36.141Z,13.68
2023-09-25T15:26:19.143Z,14.68
2023-09-25T15:28:57.840Z,12.55
2023-09-25T15:31:34.846Z,15.20
2023-09-25T15:34:13.894Z,15.27
2023-09-25T15:36:47.217Z,17.02
2023-09-25T15:39:32.304Z,13.07
2023-09-25T15:42:28.014Z,13.75
2023-09-25T15:45:32.163Z,12.25
2023-09-25T15:48:06.577Z,15.15
2023-09-25T15:50:48.647Z,16.75
2023-09-25T15:53:34.304Z,15.18
2023-09-25T15:56:16.443Z,16.13
2023-09-25T15:58:55.063Z,16.50
2023-09-25T16:01:33.552Z,20.65
2023-09-25T16:04:08.923Z,17.45
2023-09-25T16:06:53.102Z,17.85
2023-09-25T16:09:55.479Z,17.55
2023-09-25T16:12:37.706Z,20.02
2023-09-25T16:15:19.634Z,17.33
2023-09-25T16:17:54.246Z,18.08
2023-09-25T16:20:30.196Z,21.20
2023-09-25T16:23:14.242Z,23.45
2023-09-25T16:25:56.376Z,27.25
2023-09-25T16:28:32.253Z,23.48
2023-09-25T16:31:09.409Z,22.77
2023-09-25T16:33:42.131Z,23.63
2023-09-25T16:36:12.487Z,23.83
2023-09-25T16:38:43.934Z,22.45
2023-09-25T16:41:17.116Z,25.02
2023-09-25T16:43:52.395Z,23.05
2023-09-25T16:46:30.847Z,20.02
2023-09-25T16:49:03.092Z,20.67
2023-09-25T16:51:40.023Z,20.23
2023-09-25T16:54:15.754Z,21.48
2023-09-25T16:56:54.865Z,21.17
2023-09-25T16:59:29.646Z,24.23
2023-09-25T17:02:11.691Z,34.75
2023-09-25T17:04:50.355Z,36.03
2023-09-25T17:07:29.225Z,30.23
2023-09-25T17:10:08.516Z,36.20
2023-09-25T17:12:47.685Z,38.70
2023-09-25T17:15:29.791Z,30.85
2023-09-25T17:18:07.161Z,29.48
2023-09-25T17:20:43.448Z,29.60
2023-09-25T17:23:21.521Z,29.67
2023-09-25T17:26:02.022Z,28.88
2023-09-25T17:28:44.344Z,28.98
2023-09-25T17:31:24.519Z,30.65
2023-09-25T17:33:57.382Z,35.70
2023-09-25T17:36:37.469Z,32.05
2023-09-25T17:39:09.460Z,27.88
2023-09-25T17:41:50.578Z,26.23
2023-09-25T17:44:31.675Z,25.20
2023-09-25T17:47:02.914Z,26.00
2023-09-25T17:49:39.890Z,24.73
2023-09-25T17:52:23.864Z,24.20
2023-09-25T17:54:59.954Z,26.90
2023-09-25T17:57:32.202Z,22.75
2023-09-25T18:00:17.492Z,23.35
2023-09-25T18:02:56.717Z,22.48
2023-09-25T18:05:32.305Z,23.25
2023-09-25T18:08:11.605Z,23.98
2023-09-25T18:10:49.015Z,23.67
2023-09-25T18:13:26.679Z,22.83
2023-09-25T18:16:08.344Z,23.95
2023-09-25T18:18:45.432Z,22.60
2023-09-25T18:21:21.562Z,23.33
2023-09-25T18:24:12.813Z,23.70
2023-09-25T18:26:53.437Z,22.67
2023-09-25T18:29:35.183Z,22.80
2023-09-25T18:32:20.870Z,21.67
2023-09-25T18:34:53.103Z,22.30
2023-09-25T18:37:34.517Z,23.30
2023-09-25T18:40:10.310Z,22.83
2023-09-25T18:42:49.634Z,24.13
2023-09-25T18:45:34.751Z,22.85
2023-09-25T18:48:22.710Z,25.58
2023-09-25T18:50:56.300Z,23.38
2023-09-25T18:53:37.423Z,22.58
2023-09-25T18:56:16.128Z,22.00
2023-09-25T18:58:53.716Z,25.27
2023-09-25T19:01:36.311Z,22.52
2023-09-25T19:04:25.604Z,22.38
2023-09-25T19:06:58.534Z,22.13
2023-09-25T19:09:42.038Z,22.15
2023-09-25T19:12:25.265Z,22.63
2023-09-25T19:15:04.684Z,21.92
2023-09-25T19:17:50.473Z,21.63
2023-09-25T19:20:24.102Z,22.40
2023-09-25T19:23:07.796Z,25.65
2023-09-25T19:25:44.542Z,22.10
2023-09-25T19:28:18.274Z,23.50
2023-09-25T19:31:04.558Z,22.73
2023-09-25T19:36:36.048Z,23.05
2023-09-25T19:39:12.233Z,22.15
2023-09-25T19:41:55.276Z,22.13
2023-09-25T19:44:38.595Z,23.08
2023-09-25T19:47:14.582Z,23.80
2023-09-25T19:49:50.852Z,21.67
2023-09-25T19:52:37.534Z,25.42
2023-09-25T19:55:17.203Z,22.88
2023-09-25T19:57:52.995Z,21.45
2023-09-25T20:00:31.305Z,22.67
2023-09-25T20:03:13.945Z,23.92
2023-09-25T20:05:53.774Z,24.13
2023-09-25T20:08:38.065Z,25.15
2023-09-25T20:11:27.664Z,22.35
2023-09-25T20:14:08.620Z,24.17
2023-09-25T20:19:28.054Z,22.77
2023-09-25T20:22:08.144Z,24.35
2023-09-25T20:24:58.425Z,26.13
2023-09-25T20:27:32.272Z,24.35
2023-09-25T20:30:03.004Z,27.77
2023-09-25T20:32:45.918Z,22.30
2023-09-25T20:35:28.521Z,25.05
2023-09-25T20:38:04.072Z,26.23
2023-09-25T20:40:53.246Z,23.02
2023-09-25T20:43:28.425Z,23.25
2023-09-25T20:46:06.065Z,24.90
2023-09-25T20:48:41.588Z,23.70
2023-09-25T20:51:26.061Z,22.70
2023-09-25T20:54:07.777Z,24.23
2023-09-25T20:56:45.709Z,21.52
2023-09-25T20:59:17.025Z,22.20
2023-09-25T21:01:56.749Z,25.92
2023-09-25T21:04:29.056Z,23.88
2023-09-25T21:07:02.071Z,22.92
2023-09-25T21:09:41.691Z,23.48
2023-09-25T21:12:19.258Z,21.63
2023-09-25T21:15:03.148Z,21.65
2023-09-25T21:17:39.834Z,22.95
2023-09-25T21:20:28.701Z,22.63
2023-09-25T21:23:06.402Z,22.95
2023-09-25T21:25:37.224Z,21.45
2023-09-25T21:28:23.402Z,23.05
2023-09-25T21:31:05.906Z,23.42
2023-09-25T21:33:45.301Z,25.77
2023-09-25T21:36:28.592Z,23.83
2023-09-25T21:39:12.941Z,24.95
2023-09-25T21:41:49.814Z,27.30
2023-09-25T21:44:33.277Z,22.75
2023-09-25T21:47:08.698Z,22.85
2023-09-25T21:49:43.648Z,25.98
2023-09-25T21:52:24.231Z,28.20
2023-09-25T21:54:57.492Z,23.52
2023-09-25T21:57:34.069Z,24.15
2023-09-25T22:00:18.968Z,22.73
2023-09-25T22:02:52.154Z,20.98
2023-09-25T22:05:27.654Z,21.75
2023-09-25T22:08:10.471Z,22.30
2023-09-25T22:10:50.142Z,20.10
2023-09-25T22:13:33.759Z,25.13
2023-09-25T22:16:26.789Z,22.85
2023-09-25T22:19:07.341Z,22.95
2023-09-25T22:21:51.225Z,23.40
2023-09-25T22:24:31.574Z,25.80
2023-09-25T22:27:12.062Z,29.95
2023-09-25T22:29:56.086Z,30.60
2023-09-25T22:32:50.073Z,27.35
2023-09-25T22:35:35.271Z,28.75
2023-09-25T22:38:15.212Z,30.90
2023-09-25T22:41:04.513Z,29.67
2023-09-25T22:43:48.044Z,31.73
2023-09-25T22:46:20.534Z,42.92
2023-09-25T22:49:06.626Z,37.50
2023-09-25T22:51:46.128Z,42.92
2023-09-25T22:54:27.638Z,42.28
2023-09-25T22:59:45.049Z,36.08
2023-09-25T23:02:33.037Z,42.08
2023-09-25T23:05:19.670Z,34.45
2023-09-25T23:07:54.284Z,36.83
2023-09-25T23:10:28.659Z,31.42
2023-09-25T23:13:10.725Z,33.22
2023-09-25T23:15:52.771Z,30.35
2023-09-25T23:18:33.638Z,28.15
2023-09-25T23:21:27.049Z,30.58
2023-09-25T23:23:57.717Z,31.75
2023-09-25T23:26:38.512Z,27.63
2023-09-25T23:29:19.578Z,21.17
2023-09-25T23:34:44.518Z,26.02
2023-09-25T23:37:34.244Z,23.67
2023-09-25T23:40:17.681Z,24.23
2023-09-25T23:42:59.133Z,33.00
2023-09-25T23:45:42.212Z,36.90
2023-09-25T23:48:29.365Z,33.90
2023-09-25T23:51:07.648Z,30.60
2023-09-25T23:53:50.988Z,28.75
2023-09-25T23:56:29.329Z,28.88
2023-09-25T23:59:08.621Z,32.63
